Time;durP1;ratioP1;P1;durP2;ratioP2;P2;SDS_P1;SDS_P2;PMS_P1;PMS_P2;Temp;Humidity;BMP_temperature;BMP_pressure;BME280_temperature;BME280_humidity;BME280_pressure;Samples;Min_cycle;Max_cycle;Signal;HPM_P1;HPM_P2
2022/05/01 00:01:31;;;;;;;19.12;10.13;;;;;;;10.18;48.50;99696.06;1807246;79;20991;-39
2022/05/01 00:03:57;;;;;;;19.55;11.53;;;;;;;10.17;48.60;99694.86;1807239;79;21040;-40
2022/05/01 00:06:23;;;;;;;21.35;10.15;;;;;;;10.18;48.86;99701.80;1807284;79;20963;-41
2022/05/01 00:08:50;;;;;;;20.37;10.80;;;;;;;10.19;48.94;99695.63;1807374;79;20959;-39
2022/05/01 00:11:15;;;;;;;26.40;11.33;;;;;;;10.17;49.44;99696.17;1807390;79;20980;-38
2022/05/01 00:13:43;;;;;;;26.42;10.68;;;;;;;10.10;49.77;99694.28;1807284;78;20968;-40
2022/05/01 00:16:09;;;;;;;32.63;10.75;;;;;;;10.10;49.82;99693.44;1807347;79;21449;-38
2022/05/01 00:18:36;;;;;;;27.82;10.65;;;;;;;10.10;50.01;99692.12;1807368;78;20940;-39
2022/05/01 00:21:03;;;;;;;28.23;10.27;;;;;;;10.02;50.18;99693.77;1807507;79;20971;-40
2022/05/01 00:23:29;;;;;;;22.40;10.07;;;;;;;9.99;49.93;99693.47;1807473;79;21703;-37
2022/05/01 00:25:55;;;;;;;23.75;10.85;;;;;;;9.94;49.43;99696.77;1807241;78;21077;-38
2022/05/01 00:28:20;;;;;;;27.05;11.08;;;;;;;9.86;50.38;99691.02;1807241;79;21003;-39
2022/05/01 00:30:46;;;;;;;24.72;9.73;;;;;;;9.82;50.46;99699.94;1807322;79;20968;-38
2022/05/01 00:38:40;;;;;;;27.40;10.23;;;;;;;9.73;50.60;99697.73;1807274;79;20960;-37
2022/05/01 00:41:07;;;;;;;25.12;9.63;;;;;;;9.69;50.71;99694.39;1807252;79;20995;-37
2022/05/01 00:43:55;;;;;;;23.75;9.78;;;;;;;9.65;51.60;99695.47;1807322;79;21433;-41
2022/05/01 00:46:21;;;;;;;21.52;9.30;;;;;;;9.62;51.33;99696.91;1807324;79;21014;-40
2022/05/01 00:48:47;;;;;;;23.07;10.13;;;;;;;9.54;52.70;99693.32;1810676;78;20991;-39
2022/05/01 00:51:14;;;;;;;25.32;9.80;;;;;;;9.50;52.41;99693.07;1812612;78;21437;-38
2022/05/01 00:53:39;;;;;;;27.07;10.27;;;;;;;9.44;53.19;99696.41;1812951;79;20979;-38
2022/05/01 00:56:06;;;;;;;23.18;9.65;;;;;;;9.40;52.36;99689.13;1812630;79;20967;-40
2022/05/01 00:58:33;;;;;;;25.95;10.25;;;;;;;9.35;53.87;99691.11;1812750;79;21026;-36
2022/05/01 01:00:59;;;;;;;22.70;10.03;;;;;;;9.34;54.25;99686.80;1812864;79;21489;-37
2022/05/01 01:03:24;;;;;;;17.05;9.30;;;;;;;9.34;54.17;99677.61;1812629;79;20947;-39
2022/05/01 01:05:50;;;;;;;19.90;9.63;;;;;;;9.33;52.77;99684.64;1812586;79;20947;-40
2022/05/01 01:08:16;;;;;;;24.20;10.00;;;;;;;9.29;53.42;99676.48;1812589;79;20960;-40
2022/05/01 01:10:42;;;;;;;24.67;9.93;;;;;;;9.27;53.81;99682.27;1812648;79;20968;-37
2022/05/01 01:13:07;;;;;;;28.05;10.43;;;;;;;9.30;53.59;99681.30;1812601;79;20975;-39
2022/05/01 01:15:34;;;;;;;21.97;10.18;;;;;;;9.34;53.39;99683.70;1812640;79;20994;-39
2022/05/01 01:18:00;;;;;;;20.02;9.05;;;;;;;9.40;52.91;99693.08;1812590;79;20979;-45
2022/05/01 01:20:29;;;;;;;20.10;9.28;;;;;;;9.41;52.99;99686.45;1812648;79;21448;-36
2022/05/01 01:23:00;;;;;;;19.95;9.18;;;;;;;9.44;53.53;99680.67;1812549;79;20979;-37
2022/05/01 01:25:30;;;;;;;20.85;9.10;;;;;;;9.46;53.71;99682.77;1812596;79;21488;-37
2022/05/01 01:28:02;;;;;;;21.12;10.72;;;;;;;9.43;53.90;99685.08;1812703;79;20948;-39
2022/05/01 01:33:17;;;;;;;22.85;9.80;;;;;;;9.28;54.34;99680.05;1812623;79;21003;-37
2022/05/01 01:35:49;;;;;;;20.70;9.60;;;;;;;9.26;54.41;99682.33;1813129;79;21438;-39
2022/05/01 01:38:16;;;;;;;21.80;8.93;;;;;;;9.19;54.58;99681.29;1812668;78;21504;-38
2022/05/01 01:40:52;;;;;;;17.23;8.90;;;;;;;9.16;54.06;99685.34;1812624;79;20972;-39
2022/05/01 01:43:24;;;;;;;24.72;9.45;;;;;;;9.11;54.72;99676.81;1812591;79;21022;-40
2022/05/01 01:45:50;;;;;;;23.70;10.32;;;;;;;9.10;54.00;99675.13;1812560;79;21011;-37
2022/05/01 01:48:19;;;;;;;22.58;10.53;;;;;;;9.10;54.58;99674.29;1814194;79;20991;-37
2022/05/01 01:51:02;;;;;;;23.67;9.63;;;;;;;9.07;54.63;99667.38;1817519;79;21092;-41
2022/05/01 01:53:30;;;;;;;23.05;9.60;;;;;;;9.06;55.19;99674.88;1817246;79;21007;-39
2022/05/01 01:55:57;;;;;;;30.65;9.83;;;;;;;9.05;54.80;99673.63;1817446;79;21570;-39
2022/05/01 01:58:25;;;;;;;29.72;9.93;;;;;;;9.05;54.58;99676.25;1817476;79;20963;-39
2022/05/01 02:00:51;;;;;;;;;;;;;;;9.00;55.55;99672.06;1820161;79;21449;-41
2022/05/01 02:03:18;;;;;;;24.90;10.00;;;;;;;8.97;57.20;99673.50;1817427;79;20162;-37
2022/05/01 02:05:44;;;;;;;20.43;9.37;;;;;;;9.02;55.18;99666.72;1817745;79;20970;-37
2022/05/01 02:08:11;;;;;;;14.98;7.72;;;;;;;9.02;55.18;99666.72;1817444;79;21310;-39
2022/05/01 02:10:37;;;;;;;15.58;7.67;;;;;;;9.03;54.73;99665.82;1817550;79;20963;-38
2022/05/01 02:13:04;;;;;;;11.97;7.00;;;;;;;9.05;54.54;99669.69;1817466;79;20943;-39
2022/05/01 02:15:30;;;;;;;13.53;7.35;;;;;;;9.05;53.90;99665.28;1817553;79;21022;-40
2022/05/01 02:17:58;;;;;;;14.47;7.37;;;;;;;9.07;54.73;99673.09;1817436;79;20940;-39
2022/05/01 02:20:26;;;;;;;17.15;7.75;;;;;;;9.07;54.36;99664.76;1817531;79;20948;-40
2022/05/01 02:22:55;;;;;;;16.93;6.80;;;;;;;9.08;54.43;99670.41;1817401;79;20963;-41
2022/05/01 02:25:21;;;;;;;11.35;5.97;;;;;;;9.06;54.18;99663.08;1817501;79;21441;-39
2022/05/01 02:27:48;;;;;;;11.88;6.03;;;;;;;9.07;54.09;99664.76;1817521;79;21464;-39
2022/05/01 02:30:13;;;;;;;12.05;5.95;;;;;;;9.09;54.31;99666.01;1817461;79;21006;-37
2022/05/01 02:32:41;;;;;;;10.35;5.70;;;;;;;9.11;53.86;99667.63;1817361;79;20971;-42
2022/05/01 02:35:09;;;;;;;15.55;6.10;;;;;;;9.13;53.89;99671.51;1817438;79;21428;-38
2022/05/01 02:37:35;;;;;;;;;;;;;;;9.14;53.81;99662.27;1820117;79;20975;-39
2022/05/01 02:40:03;;;;;;;8.68;5.58;;;;;;;9.12;54.28;99664.11;1817503;79;20427;-37
2022/05/01 02:43:33;;;;;;;8.88;4.92;;;;;;;9.15;54.25;99661.36;1855781;77;22835;-37
2022/05/01 02:45:59;;;;;;;9.55;5.65;;;;;;;9.12;53.20;99662.80;1829162;78;21463;-39
2022/05/01 02:48:25;;;;;;;10.53;5.42;;;;;;;9.12;53.19;99660.17;1829475;78;21010;-37
2022/05/01 02:50:50;;;;;;;11.50;5.67;;;;;;;9.11;53.51;99653.20;1829475;78;21413;-37
2022/05/01 02:53:16;;;;;;;9.63;5.47;;;;;;;9.13;52.90;99649.20;1829519;78;21440;-36
2022/05/01 02:55:42;;;;;;;8.08;5.28;;;;;;;9.15;53.13;99650.86;1829382;78;21554;-39
2022/05/01 02:58:08;;;;;;;11.53;5.62;;;;;;;9.16;52.97;99653.86;1829411;78;20991;-37
2022/05/01 03:00:34;;;;;;;8.75;5.92;;;;;;;9.18;52.76;99648.55;1829427;78;20982;-37
2022/05/01 03:02:59;;;;;;;11.10;5.37;;;;;;;9.17;51.37;99651.64;1829325;78;21046;-39
2022/05/01 03:05:25;;;;;;;11.45;6.40;;;;;;;9.18;51.89;99655.11;1829455;78;20971;-39
2022/05/01 03:07:55;;;;;;;11.10;5.90;;;;;;;9.17;52.18;99657.36;1829393;78;20943;-38
2022/05/01 03:10:19;;;;;;;13.18;6.22;;;;;;;9.14;52.29;99653.08;1828928;78;20966;-36
2022/05/01 03:12:45;;;;;;;17.73;6.75;;;;;;;9.15;52.22;99653.92;1829395;78;20951;-39
2022/05/01 03:15:10;;;;;;;11.93;6.20;;;;;;;9.14;52.03;99659.64;1829562;78;20973;-38
2022/05/01 03:23:05;;;;;;;10.43;5.62;;;;;;;9.09;52.92;99656.83;1829572;78;21413;-39
2022/05/01 03:25:30;;;;;;;9.48;5.78;;;;;;;9.07;52.78;99658.20;1829467;78;20963;-36
2022/05/01 03:27:56;;;;;;;14.98;5.75;;;;;;;9.06;53.20;99657.83;1829375;78;21444;-38
2022/05/01 03:30:23;;;;;;;14.03;5.90;;;;;;;9.05;53.05;99656.58;1829397;78;21014;-37
2022/05/01 03:32:49;;;;;;;13.10;5.62;;;;;;;9.04;53.15;99654.42;1829451;78;20978;-38
2022/05/01 03:35:16;;;;;;;9.95;5.78;;;;;;;9.01;53.29;99652.77;1829568;78;21013;-39
2022/05/01 03:37:42;;;;;;;;;;;;;;;8.99;53.19;99652.45;1832153;78;21412;-39
2022/05/01 03:40:10;;;;;;;11.20;6.22;;;;;;;8.97;54.79;99645.95;1829315;78;20153;-35
2022/05/01 03:42:36;;;;;;;10.32;5.75;;;;;;;8.98;53.29;99648.11;1823410;78;21540;-37
2022/05/01 03:45:02;;;;;;;13.90;5.85;;;;;;;8.98;53.12;99650.73;1818192;79;20979;-36
2022/05/01 03:47:28;;;;;;;13.10;6.10;;;;;;;8.99;53.43;99646.73;1818197;79;21131;-37
2022/05/01 03:49:54;;;;;;;11.93;5.97;;;;;;;9.01;53.20;99646.20;1818108;79;20982;-38
2022/05/01 03:52:19;;;;;;;14.73;6.75;;;;;;;9.05;52.47;99652.17;1818068;79;20983;-37
2022/05/01 03:54:45;;;;;;;13.48;5.75;;;;;;;9.10;53.19;99651.98;1817559;79;20975;-39
2022/05/01 03:57:11;;;;;;;10.93;6.08;;;;;;;9.10;53.46;99648.89;1817559;79;20976;-39
2022/05/01 03:59:37;;;;;;;11.57;6.47;;;;;;;9.10;53.43;99649.36;1817637;79;21461;-36
2022/05/01 04:02:03;;;;;;;8.35;5.30;;;;;;;9.11;53.88;99654.98;1817515;79;20972;-40
2022/05/01 04:04:29;;;;;;;15.10;5.87;;;;;;;9.12;54.13;99658.02;1817526;79;21107;-39
2022/05/01 04:06:57;;;;;;;9.90;6.03;;;;;;;9.12;53.83;99649.67;1817525;79;21026;-37
2022/05/01 04:09:24;;;;;;;;;;;;;;;9.14;54.11;99653.08;1820240;79;20998;-36
2022/05/01 04:11:52;;;;;;;;;;;;;;;9.18;55.48;99653.80;1820249;79;20101;-38
2022/05/01 04:14:18;;;;;;;17.70;6.35;;;;;;;9.20;55.69;99659.39;1817417;79;20407;-38
2022/05/01 04:16:44;;;;;;;20.68;6.22;;;;;;;9.26;54.09;99658.70;1817645;79;21554;-39
2022/05/01 04:19:11;;;;;;;14.33;6.80;;;;;;;9.31;54.17;99661.98;1817567;79;20943;-36
2022/05/01 04:21:38;;;;;;;16.48;6.50;;;;;;;9.35;53.84;99657.86;1817604;79;21006;-39
2022/05/01 04:24:05;;;;;;;14.70;6.43;;;;;;;9.40;53.88;99658.95;1817767;79;20978;-39
2022/05/01 04:26:31;;;;;;;19.48;8.13;;;;;;;9.47;53.35;99660.85;1817602;79;20987;-39
2022/05/01 04:31:41;;;;;;;25.02;7.50;;;;;;;9.60;53.05;99664.62;1817780;79;20966;-38
2022/05/01 04:34:07;;;;;;;13.13;6.78;;;;;;;9.66;52.97;99668.73;1817521;79;21096;-36
2022/05/01 04:36:33;;;;;;;17.27;7.33;;;;;;;9.72;53.11;99668.48;1794920;79;21018;-39
2022/05/01 04:38:59;;;;;;;16.62;7.37;;;;;;;9.75;53.57;99661.75;1817470;79;21019;-38
2022/05/01 04:41:25;;;;;;;14.93;6.25;;;;;;;9.83;53.78;99664.05;1817445;79;20972;-36
2022/05/01 04:43:51;;;;;;;13.45;6.33;;;;;;;9.86;53.61;99666.51;1817439;79;21023;-39
2022/05/01 04:46:17;;;;;;;12.80;5.72;;;;;;;9.91;53.45;99667.15;1817640;79;20971;-36
2022/05/01 04:48:43;;;;;;;12.63;6.30;;;;;;;9.99;52.98;99666.34;1817577;79;21530;-36
2022/05/01 04:51:09;;;;;;;12.85;6.45;;;;;;;10.04;52.82;99662.17;1817623;79;21436;-36
2022/05/01 04:53:34;;;;;;;10.18;6.10;;;;;;;10.10;53.14;99664.53;1817578;79;20983;-35
2022/05/01 04:57:04;;;;;;;12.68;6.20;;;;;;;10.15;52.60;99663.83;1817689;79;20979;-36
2022/05/01 04:58:28;;;;;;;;;;;;;;;10.21;52.86;99671.44;1816677;79;20991;-35
2022/05/01 05:00:53;;;;;;;9.35;5.92;;;;;;;10.24;53.39;99663.85;1817717;79;20098;-36
2022/05/01 05:03:19;;;;;;;12.43;5.30;;;;;;;10.31;52.65;99660.04;1817448;79;21015;-36
2022/05/01 05:05:45;;;;;;;10.55;5.53;;;;;;;10.37;51.66;99665.86;1817485;79;21095;-37
2022/05/01 05:10:55;;;;;;;11.90;5.42;;;;;;;10.52;50.93;99662.09;1817497;79;20959;-38
2022/05/01 05:13:27;;;;;;;9.98;5.35;;;;;;;10.60;50.98;99668.28;1817434;79;20983;-39
2022/05/01 05:15:53;;;;;;;16.77;5.60;;;;;;;10.67;50.78;99668.38;1817081;79;20932;-37
2022/05/01 05:18:19;;;;;;;9.55;5.35;;;;;;;10.72;49.75;99669.84;1817505;79;20970;-38
2022/05/01 05:20:45;;;;;;;13.48;5.53;;;;;;;10.79;49.95;99662.95;1817494;79;20951;-35
2022/05/01 05:23:10;;;;;;;11.20;5.22;;;;;;;10.86;49.71;99670.48;1817452;79;20971;-36
2022/05/01 05:25:36;;;;;;;14.13;5.17;;;;;;;10.92;49.23;99670.63;1817478;79;20978;-36
2022/05/01 05:28:06;;;;;;;7.80;4.35;;;;;;;11.01;48.97;99670.64;1817500;79;20979;-38
2022/05/01 05:30:30;;;;;;;8.55;4.95;;;;;;;11.09;48.54;99675.87;1817029;79;21002;-37
2022/05/01 05:32:56;;;;;;;7.25;4.25;;;;;;;11.18;47.75;99679.81;1817462;79;20970;-36
2022/05/01 05:35:21;;;;;;;13.98;4.33;;;;;;;11.26;47.39;99680.28;1817403;79;21018;-39
2022/05/01 05:37:47;;;;;;;9.50;4.25;;;;;;;11.34;47.39;99682.03;1817421;79;20979;-38
2022/05/01 05:40:13;;;;;;;8.35;4.30;;;;;;;11.40;47.04;99674.75;1817485;79;20983;-38
2022/05/01 05:42:38;;;;;;;6.83;4.40;;;;;;;11.46;46.11;99676.61;1817306;79;21054;-38
2022/05/01 05:45:05;;;;;;;5.72;3.98;;;;;;;11.52;46.62;99674.95;1817466;79;21028;-36
2022/05/01 05:47:31;;;;;;;11.25;4.03;;;;;;;11.60;46.33;99681.13;1817642;79;20975;-37
2022/05/01 05:49:57;;;;;;;11.57;3.95;;;;;;;11.70;46.16;99676.23;1817468;79;20988;-38
2022/05/01 05:52:23;;;;;;;6.00;3.87;;;;;;;11.79;45.92;99677.05;1817460;79;20987;-38
2022/05/01 05:54:48;;;;;;;5.97;3.80;;;;;;;11.89;45.89;99678.23;1817524;79;20971;-37
2022/05/01 05:57:14;;;;;;;6.83;3.85;;;;;;;11.99;45.71;99683.03;1817524;79;21483;-37
2022/05/01 05:59:40;;;;;;;12.90;4.15;;;;;;;12.08;45.57;99678.59;1817507;79;21042;-39
2022/05/01 06:02:07;;;;;;;5.12;3.50;;;;;;;12.17;45.07;99683.80;1817426;79;21452;-36
2022/05/01 06:04:33;;;;;;;6.75;4.33;;;;;;;12.25;45.21;99685.56;1817646;79;21022;-36
2022/05/01 06:06:59;;;;;;;11.03;3.72;;;;;;;12.33;44.82;99684.65;1817504;79;21062;-36
2022/05/01 06:09:24;;;;;;;6.03;3.65;;;;;;;12.42;44.80;99680.64;1817484;79;21009;-38
2022/05/01 06:11:50;;;;;;;5.03;3.70;;;;;;;12.51;44.42;99680.13;1817476;79;21455;-36
2022/05/01 06:14:16;;;;;;;5.53;3.42;;;;;;;12.61;43.82;99681.30;1817474;79;21476;-36
2022/05/01 06:16:42;;;;;;;11.53;3.12;;;;;;;12.68;43.38;99686.61;1817410;79;21051;-39
2022/05/01 06:19:07;;;;;;;4.10;2.83;;;;;;;12.77;43.07;99681.28;1817398;79;21013;-37
2022/05/01 06:21:33;;;;;;;7.87;3.10;;;;;;;12.86;43.32;99686.46;1817464;79;21030;-37
2022/05/01 06:23:59;;;;;;;25.08;3.98;;;;;;;12.95;42.32;99689.91;1817520;79;21515;-38
2022/05/01 06:26:24;;;;;;;6.95;3.22;;;;;;;13.04;42.51;99684.53;1817499;79;21459;-37
2022/05/01 06:28:51;;;;;;;8.93;3.27;;;;;;;13.12;42.47;99680.98;1817503;79;21010;-37
2022/05/01 06:31:17;;;;;;;4.25;2.75;;;;;;;13.21;41.66;99687.52;1817760;79;21022;-38
2022/05/01 06:33:46;;;;;;;5.53;3.05;;;;;;;13.29;41.16;99685.24;1817424;79;21017;-37
2022/05/01 06:36:16;;;;;;;4.92;3.70;;;;;;;13.39;41.57;99683.79;1817431;79;20986;-40
2022/05/01 06:38:44;;;;;;;8.83;3.60;;;;;;;13.52;41.46;99683.05;1817466;79;21002;-38
2022/05/01 06:41:10;;;;;;;11.78;3.67;;;;;;;13.62;40.91;99686.80;1817542;79;20978;-40
2022/05/01 06:43:36;;;;;;;15.13;4.85;;;;;;;13.73;40.90;99685.66;1814429;79;21643;-35
2022/05/01 06:46:01;;;;;;;8.38;4.20;;;;;;;13.81;40.33;99684.73;1812545;79;20990;-39
2022/05/01 06:48:27;;;;;;;7.00;3.35;;;;;;;13.91;40.22;99682.34;1812610;78;21030;-40
2022/05/01 06:50:53;;;;;;;6.15;2.90;;;;;;;14.01;39.97;99687.92;1812633;79;21298;-37
2022/05/01 06:53:19;;;;;;;4.15;2.65;;;;;;;14.10;39.37;99692.62;1812625;79;21575;-38
2022/05/01 06:55:45;;;;;;;19.52;3.77;;;;;;;14.23;39.30;99686.56;1812635;79;20939;-41
2022/05/01 06:58:10;;;;;;;6.87;2.70;;;;;;;14.30;38.89;99687.38;1812555;79;20979;-39
2022/05/01 07:00:36;;;;;;;3.25;2.42;;;;;;;14.42;38.72;99692.34;1812509;78;20983;-40
2022/05/01 07:03:02;;;;;;;5.72;2.30;;;;;;;14.63;38.26;99686.17;1812519;79;20967;-40
2022/05/01 07:05:28;;;;;;;7.12;2.50;;;;;;;14.63;38.26;99686.17;1812618;79;20978;-39
2022/05/01 07:07:54;;;;;;;3.12;1.90;;;;;;;14.74;37.47;99694.73;1812539;79;20979;-42
2022/05/01 07:10:22;;;;;;;4.05;2.40;;;;;;;14.87;37.03;99694.76;1812551;79;20971;-39
2022/05/01 07:12:48;;;;;;;4.75;1.80;;;;;;;14.94;36.70;99696.89;1812733;79;20948;-41
2022/05/01 07:15:14;;;;;;;3.52;1.75;;;;;;;15.02;36.19;99695.52;1812523;78;21488;-40
2022/05/01 07:17:41;;;;;;;3.58;1.85;;;;;;;15.08;36.40;99689.34;1812528;79;21027;-39
2022/05/01 07:20:09;;;;;;;6.15;2.20;;;;;;;15.13;36.23;99694.31;1812858;79;21523;-39
2022/05/01 07:22:35;;;;;;;5.35;2.27;;;;;;;15.18;35.89;99690.88;1812532;79;21006;-40
2022/05/01 07:25:00;;;;;;;2.17;1.80;;;;;;;15.27;36.27;99692.06;1812691;79;20975;-38
2022/05/01 07:27:26;;;;;;;4.35;2.12;;;;;;;15.33;35.97;99692.50;1812540;79;21473;-37
2022/05/01 07:29:52;;;;;;;5.58;2.33;;;;;;;15.36;36.03;99689.63;1812657;79;21492;-39
2022/05/01 07:32:18;;;;;;;5.33;2.20;;;;;;;15.43;35.87;99689.22;1812781;79;21445;-40
2022/05/01 07:34:43;;;;;;;4.97;2.20;;;;;;;15.43;35.48;99694.03;1812757;79;20987;-36
2022/05/01 07:37:09;;;;;;;7.58;2.75;;;;;;;15.50;35.56;99690.00;1812735;79;20995;-39
2022/05/01 07:39:35;;;;;;;7.87;2.85;;;;;;;15.59;35.39;99687.20;1812683;79;20979;-37
2022/05/01 07:42:01;;;;;;;7.67;2.17;;;;;;;15.64;35.17;99688.19;1812656;78;20944;-36
2022/05/01 07:44:26;;;;;;;7.00;2.17;;;;;;;15.68;34.62;99691.85;1816684;79;20968;-37
2022/05/01 07:46:52;;;;;;;4.67;1.92;;;;;;;15.72;34.35;99691.16;1817557;79;21014;-39
2022/05/01 07:49:19;;;;;;;4.20;2.10;;;;;;;15.73;33.97;99693.71;1817553;79;20979;-36
2022/05/01 07:51:45;;;;;;;4.37;2.00;;;;;;;15.76;34.06;99694.48;1817805;79;20947;-38
2022/05/01 07:54:10;;;;;;;2.05;1.85;;;;;;;15.71;33.55;99692.94;1817498;79;20983;-38
2022/05/01 07:56:36;;;;;;;3.17;2.00;;;;;;;15.76;33.91;99695.80;1817601;79;21010;-38
2022/05/01 07:59:03;;;;;;;3.10;1.85;;;;;;;15.75;33.75;99693.61;1817449;79;20978;-39
2022/05/01 08:01:29;;;;;;;2.55;2.10;;;;;;;15.68;33.68;99687.00;1817836;79;21491;-39
2022/05/01 08:06:39;;;;;;;3.50;2.08;;;;;;;15.65;33.49;99690.73;1817538;79;21027;-38
2022/05/01 08:09:05;;;;;;;3.55;1.85;;;;;;;15.65;33.50;99685.43;1817549;79;20971;-41
2022/05/01 08:11:31;;;;;;;2.85;1.82;;;;;;;15.66;33.32;99685.81;1817536;79;20978;-40
2022/05/01 08:13:57;;;;;;;12.05;2.27;;;;;;;15.67;32.93;99684.00;1817600;79;21738;-40
2022/05/01 08:16:24;;;;;;;4.30;2.47;;;;;;;15.70;32.40;99680.66;1817540;79;21289;-37
2022/05/01 08:21:36;;;;;;;3.95;1.90;;;;;;;15.76;33.17;99676.75;1817655;79;20956;-39
2022/05/01 08:24:05;;;;;;;4.03;1.80;;;;;;;15.85;33.12;99680.56;1817506;79;20979;-37
2022/05/01 08:26:34;;;;;;;3.15;1.80;;;;;;;15.94;32.83;99673.28;1817635;79;21033;-40
2022/05/01 08:29:01;;;;;;;4.62;1.80;;;;;;;15.98;32.71;99677.39;1817559;79;21025;-37
2022/05/01 08:31:28;;;;;;;3.65;2.22;;;;;;;16.12;32.93;99670.63;1817788;79;21149;-36
2022/05/01 08:33:57;;;;;;;3.90;1.97;;;;;;;16.20;31.40;99674.04;1817790;79;20982;-40
2022/05/01 08:36:22;;;;;;;3.58;1.70;;;;;;;16.30;32.73;99669.77;1817483;79;21019;-39
2022/05/01 08:38:48;;;;;;;3.22;1.70;;;;;;;16.41;31.92;99664.13;1817590;79;21472;-39
2022/05/01 08:41:15;;;;;;;3.17;1.72;;;;;;;16.51;32.23;99661.17;1817621;79;21507;-38
2022/05/01 08:43:41;;;;;;;2.67;1.70;;;;;;;16.46;30.63;99661.53;1817740;79;21535;-39
2022/05/01 08:46:21;;;;;;;2.02;1.52;;;;;;;16.55;31.25;99650.69;1817451;79;21618;-37
2022/05/01 08:49:09;;;;;;;3.00;1.80;;;;;;;16.66;31.08;99660.51;1816529;79;20974;-39
2022/05/01 08:51:41;;;;;;;5.22;1.60;;;;;;;16.76;29.13;99660.69;1817453;79;21476;-38
2022/05/01 08:54:12;;;;;;;2.30;1.50;;;;;;;17.00;31.22;99656.19;1817457;79;20991;-39
2022/05/01 08:56:43;;;;;;;2.62;1.50;;;;;;;17.27;31.02;99653.22;1817489;79;20986;-39
2022/05/01 08:59:15;;;;;;;2.20;1.60;;;;;;;17.54;30.08;99650.72;1817541;79;20991;-38
2022/05/01 09:01:44;;;;;;;2.45;1.60;;;;;;;17.78;28.87;99647.08;1817041;79;21017;-40
2022/05/01 09:04:12;;;;;;;4.35;1.77;;;;;;;18.02;29.48;99642.47;1817472;79;21476;-38
2022/05/01 09:06:41;;;;;;;3.77;1.72;;;;;;;18.37;29.02;99649.89;1817443;79;21139;-39
2022/05/01 09:09:18;;;;;;;6.53;1.80;;;;;;;18.57;27.29;99642.45;1817476;79;20951;-39
2022/05/01 09:14:29;;;;;;;5.42;2.52;;;;;;;19.10;28.27;99649.59;1817471;79;20959;-37
2022/05/01 09:17:13;;;;;;;5.65;1.77;;;;;;;19.33;28.62;99642.27;1817603;79;20959;-38
2022/05/01 09:19:41;;;;;;;16.32;2.22;;;;;;;19.70;27.57;99647.55;1817490;79;21014;-38
2022/05/01 09:22:07;;;;;;;;;;;;;;;20.18;25.19;99649.56;1820167;79;21038;-38
2022/05/01 09:24:33;;;;;;;3.63;1.93;;;;;;;20.33;25.33;99649.50;1817807;79;20141;-39
2022/05/01 09:27:00;;;;;;;2.65;1.50;;;;;;;21.02;27.48;99638.84;1817503;79;21490;-38
2022/05/01 09:29:37;;;;;;;5.83;1.85;;;;;;;21.74;27.51;99644.07;1817649;79;20947;-38
2022/05/01 09:32:05;;;;;;;2.50;1.72;;;;;;;22.04;27.08;99644.75;1817569;79;21448;-39
2022/05/01 09:34:35;;;;;;;4.85;2.05;;;;;;;22.28;24.49;99638.00;1817428;79;21010;-36
2022/05/01 09:37:03;;;;;;;4.08;2.00;;;;;;;22.19;24.44;99642.39;1817364;79;20963;-40
2022/05/01 09:39:32;;;;;;;4.00;1.82;;;;;;;22.86;25.10;99641.55;1817472;79;20963;-41
2022/05/01 09:42:16;;;;;;;7.78;2.27;;;;;;;22.89;24.66;99631.02;1817423;79;20985;-37
2022/05/01 09:44:43;;;;;;;4.22;1.75;;;;;;;23.15;23.26;99635.08;1809945;79;20992;-39
2022/05/01 09:47:09;;;;;;;2.50;1.80;;;;;;;23.48;24.31;99637.96;1807356;79;21015;-37
2022/05/01 09:49:49;;;;;;;3.52;2.02;;;;;;;23.83;24.20;99638.81;1807456;79;21011;-40
2022/05/01 09:52:16;;;;;;;5.55;2.08;;;;;;;24.35;23.23;99626.54;1806446;79;20940;-42
2022/05/01 09:55:03;;;;;;;3.13;2.17;;;;;;;24.25;20.36;99628.53;1807436;79;21403;-43
2022/05/01 09:57:28;;;;;;;5.30;2.17;;;;;;;24.98;22.66;99622.91;1807202;79;21156;-39
2022/05/01 09:59:54;;;;;;;3.08;1.70;;;;;;;25.36;21.98;99621.83;1807465;78;20948;-40
2022/05/01 10:02:30;;;;;;;4.50;2.07;;;;;;;25.56;19.32;99620.92;1807444;79;21144;-43
2022/05/01 10:05:06;;;;;;;4.55;2.50;;;;;;;26.01;20.16;99621.63;1807157;79;21128;-41
2022/05/01 10:07:36;;;;;;;3.83;1.67;;;;;;;26.56;21.08;99617.53;1805088;78;21528;-39
2022/05/01 10:10:07;;;;;;;5.83;2.42;;;;;;;27.13;20.39;99627.86;1807132;78;21023;-38
2022/05/01 10:12:38;;;;;;;7.53;3.35;;;;;;;26.83;19.62;99621.55;1805952;79;21463;-41
2022/05/01 10:15:04;;;;;;;2.35;2.00;;;;;;;26.58;19.87;99618.22;1806798;79;20983;-43
2022/05/01 10:17:33;;;;;;;17.23;2.65;;;;;;;26.67;18.42;99613.59;1807345;79;20982;-40
2022/05/01 10:20:02;;;;;;;3.05;2.17;;;;;;;27.04;19.26;99613.29;1807131;79;20999;-38
2022/05/01 10:22:28;;;;;;;4.33;1.80;;;;;;;27.08;19.26;99605.97;1807078;79;21570;-39
2022/05/01 10:24:54;;;;;;;5.67;2.05;;;;;;;27.20;17.76;99617.17;1807242;79;21034;-39
2022/05/01 10:27:40;;;;;;;4.53;1.90;;;;;;;27.77;19.08;99611.64;1807414;79;20979;-39
2022/05/01 10:33:35;;;;;;;4.50;1.70;;;;;;;27.75;16.42;99613.17;1807226;79;20971;-38
2022/05/01 10:36:52;;;;;;;3.42;2.00;;;;;;;28.90;17.90;99606.59;1807419;79;21019;-38
2022/05/01 10:39:20;;;;;;;3.00;2.00;;;;;;;28.44;18.00;99611.06;1778160;79;20983;-38
2022/05/01 10:41:47;;;;;;;4.58;1.87;;;;;;;29.42;16.38;99608.02;1807192;79;21441;-38
2022/05/01 10:44:30;;;;;;;3.47;1.70;;;;;;;29.08;16.79;99602.88;1809155;79;21063;-39
2022/05/01 10:47:16;;;;;;;4.87;1.80;;;;;;;29.31;16.43;99598.25;1812520;79;21013;-38
2022/05/01 10:49:47;;;;;;;4.80;1.85;;;;;;;28.85;16.27;99598.22;1812616;79;21035;-36
2022/05/01 10:52:16;;;;;;;3.02;1.67;;;;;;;29.17;16.86;99594.11;1812527;79;21468;-38
2022/05/01 10:55:04;;;;;;;1.70;1.60;;;;;;;30.19;16.77;99596.56;1812587;79;21480;-39
2022/05/01 10:57:26;;;;;;;4.92;1.82;;;;;;;31.03;16.23;99596.25;1810910;79;20967;-38
2022/05/01 11:00:15;;;;;;;2.40;1.62;;;;;;;31.37;15.39;99597.86;1812688;79;21007;-40
2022/05/01 11:02:45;;;;;;;4.62;2.08;;;;;;;30.22;16.05;99596.16;1810518;79;20975;-43
2022/05/01 11:05:40;;;;;;;1.60;1.50;;;;;;;31.04;15.50;99599.30;1812612;79;21014;-36
2022/05/01 11:08:14;;;;;;;;;;;;;;;31.52;15.30;99594.91;1815466;79;20967;-40
2022/05/01 11:10:40;;;;;;;2.75;1.90;;;;;;;32.28;13.59;99591.96;1812690;79;20436;-39
2022/05/01 11:13:08;;;;;;;3.27;1.72;;;;;;;31.89;13.80;99592.45;1812816;79;20979;-38
2022/05/01 11:15:39;;;;;;;2.42;1.42;;;;;;;32.48;14.38;99595.37;1812716;78;20998;-38
2022/05/01 11:18:06;;;;;;;3.10;2.02;;;;;;;33.26;14.13;99590.02;1810866;79;20979;-37
2022/05/01 11:20:33;;;;;;;;;;;;;;;33.59;13.64;99585.25;1786294;79;20975;-37
2022/05/01 11:23:21;;;;;;;2.87;1.60;;;;;;;33.15;12.51;99589.94;1812703;78;20215;-39
2022/05/01 11:25:47;;;;;;;5.20;1.80;;;;;;;33.98;13.72;99585.30;1812684;79;20963;-38
2022/05/01 11:28:33;;;;;;;;;;;;;;;33.71;13.10;99579.88;1815388;79;20959;-38
2022/05/01 11:30:59;;;;;;;7.12;1.92;;;;;;;32.93;12.49;99582.16;1812714;79;20129;-38
2022/05/01 11:33:25;;;;;;;;;;;;;;;33.35;12.86;99580.19;1815486;79;21468;-39
2022/05/01 11:36:01;;;;;;;3.08;1.50;;;;;;;33.18;12.16;99586.23;1812681;79;20213;-38
2022/05/01 11:38:41;;;;;;;2.70;1.57;;;;;;;31.47;12.68;99578.38;1812837;79;20955;-39
2022/05/01 11:41:11;;;;;;;3.50;2.00;;;;;;;30.57;14.11;99580.27;1812644;79;21453;-40
2022/05/01 11:43:35;;;;;;;4.42;2.25;;;;;;;29.65;14.80;99568.44;1812360;79;20972;-36
2022/05/01 11:46:03;;;;;;;2.93;1.93;;;;;;;30.22;14.76;99573.10;1817867;79;21456;-37
2022/05/01 11:48:29;;;;;;;2.83;1.77;;;;;;;30.24;14.45;99575.61;1817586;79;21838;-39
2022/05/01 11:50:59;;;;;;;6.78;2.05;;;;;;;31.55;14.76;99573.58;1817530;79;21010;-35
2022/05/01 11:53:28;;;;;;;6.20;2.37;;;;;;;32.58;14.04;99564.09;1817625;79;20982;-38
2022/05/01 12:04:27;;;;;;;2.80;1.85;;;;;;;33.98;12.64;99556.66;1817693;79;21476;-35
2022/05/01 12:07:04;;;;;;;2.22;1.77;;;;;;;34.32;11.93;99557.53;1817486;79;21578;-40
2022/05/01 12:09:35;;;;;;;3.45;2.00;;;;;;;34.97;12.12;99555.30;1817546;79;21006;-36
2022/05/01 12:12:01;;;;;;;5.50;2.05;;;;;;;34.52;12.40;99557.22;1817629;79;21876;-39
2022/05/01 12:14:28;;;;;;;3.95;1.92;;;;;;;34.74;12.21;99558.32;1817518;79;20998;-38
2022/05/01 12:16:54;;;;;;;3.87;2.45;;;;;;;35.41;12.11;99552.18;1817513;79;21519;-38
2022/05/01 12:19:20;;;;;;;4.03;1.80;;;;;;;35.39;11.72;99560.63;1817597;79;21155;-44